Time;durP1;ratioP1;P1;durP2;ratioP2;P2;SDS_P1;SDS_P2;PMS_P1;PMS_P2;Temp;Humidity;BMP_temperature;BMP_pressure;BME280_temperature;BME280_humidity;BME280_pressure;Samples;Min_cycle;Max_cycle;Signal;HPM_P1;HPM_P2
2023/06/30 00:02:00;;;;;;;2.60;1.65;;;19.60;99.90;;;;;;4115752;28;20101;-55
2023/06/30 00:04:03;;;;;;;2.83;1.60;;;19.40;99.90;;;;;;4116155;28;20055;-53
2023/06/30 00:06:06;;;;;;;1.85;1.45;;;19.30;99.90;;;;;;4115464;28;20050;-52
2023/06/30 00:08:08;;;;;;;6.03;1.75;;;19.30;99.90;;;;;;4116318;28;20046;-58
2023/06/30 00:10:11;;;;;;;8.45;5.82;;;19.30;99.90;;;;;;4117390;28;20078;-52
2023/06/30 00:12:13;;;;;;;4.72;3.35;;;19.40;99.90;;;;;;4115893;28;20129;-53
2023/06/30 00:14:15;;;;;;;3.72;2.80;;;19.40;99.90;;;;;;4115861;28;20057;-52
2023/06/30 00:16:17;;;;;;;4.10;2.72;;;19.30;99.90;;;;;;4114883;28;20039;-55
2023/06/30 00:18:19;;;;;;;4.03;2.70;;;19.40;99.90;;;;;;4115548;28;20043;-53
2023/06/30 00:20:23;;;;;;;3.63;2.25;;;19.50;99.40;;;;;;4114987;28;20118;-57
2023/06/30 00:22:27;;;;;;;3.47;2.67;;;19.50;99.40;;;;;;4116329;28;20053;-56
2023/06/30 00:24:29;;;;;;;4.20;2.30;;;19.40;99.40;;;;;;4116682;28;20043;-58
2023/06/30 00:26:31;;;;;;;4.10;1.90;;;19.40;99.20;;;;;;4115114;28;20500;-58
2023/06/30 00:28:33;;;;;;;2.67;1.63;;;19.30;99.20;;;;;;4116388;28;20121;-55
2023/06/30 00:30:35;;;;;;;2.60;1.70;;;19.30;99.20;;;;;;4116911;28;20426;-53
2023/06/30 00:32:37;;;;;;;4.25;2.20;;;19.40;99.10;;;;;;4116924;28;20054;-53
2023/06/30 00:34:40;;;;;;;2.05;1.60;;;19.30;99.20;;;;;;4116898;28;20046;-53
2023/06/30 00:36:42;;;;;;;2.13;1.90;;;19.30;99.30;;;;;;4115879;28;20051;-61
2023/06/30 00:38:46;;;;;;;2.55;1.67;;;19.20;99.50;;;;;;4117704;28;20427;-58
2023/06/30 00:40:48;;;;;;;3.35;1.25;;;19.30;99.30;;;;;;4117246;28;20057;-61
2023/06/30 00:42:50;;;;;;;2.80;1.33;;;19.30;99.30;;;;;;4117482;28;20114;-56
2023/06/30 00:44:52;;;;;;;1.40;1.20;;;19.30;99.30;;;;;;4117268;28;20054;-57
2023/06/30 00:46:54;;;;;;;2.78;1.63;;;19.20;99.30;;;;;;4116492;28;20053;-58
2023/06/30 00:48:58;;;;;;;3.13;1.90;;;19.20;99.40;;;;;;4099987;28;20110;-63
2023/06/30 00:51:00;;;;;;;4.75;2.75;;;19.30;99.30;;;;;;4115917;28;20046;-63
2023/06/30 00:53:03;;;;;;;6.68;3.08;;;19.30;99.00;;;;;;4115460;28;20097;-56
2023/06/30 00:55:08;;;;;;;5.80;3.03;;;19.30;98.90;;;;;;4113931;28;20497;-56
2023/06/30 00:57:10;;;;;;;5.60;2.95;;;19.30;98.60;;;;;;4099361;28;20134;-56
2023/06/30 00:59:12;;;;;;;4.43;2.60;;;19.30;98.60;;;;;;4115380;28;20050;-57
2023/06/30 01:01:23;;;;;;;6.38;3.95;;;19.30;98.50;;;;;;4115595;28;20055;-55
2023/06/30 01:03:30;;;;;;;3.40;2.45;;;19.30;98.20;;;;;;4115382;28;20046;-63
2023/06/30 01:05:39;;;;;;;4.40;1.95;;;19.20;98.20;;;;;;4115352;28;20464;-56
2023/06/30 01:07:46;;;;;;;4.05;2.30;;;19.10;98.40;;;;;;4113993;28;20047;-54
2023/06/30 01:09:53;;;;;;;4.07;2.28;;;19.10;98.30;;;;;;4114819;28;20074;-56
2023/06/30 01:11:57;;;;;;;2.33;1.40;;;19.20;98.20;;;;;;4115737;28;20065;-56
2023/06/30 01:14:03;;;;;;;3.20;2.13;;;19.30;97.80;;;;;;4115302;28;20536;-56
2023/06/30 01:16:09;;;;;;;5.10;2.58;;;19.20;97.90;;;;;;4115390;28;20106;-56
2023/06/30 01:18:13;;;;;;;4.32;1.80;;;19.10;98.10;;;;;;4114619;28;20070;-57
2023/06/30 01:20:19;;;;;;;11.40;3.78;;;19.20;97.90;;;;;;4115210;28;20055;-55
2023/06/30 01:22:30;;;;;;;10.10;5.00;;;19.20;98.00;;;;;;4115368;28;20464;-57
2023/06/30 01:24:35;;;;;;;11.20;5.25;;;19.20;98.10;;;;;;4114550;28;20119;-55
2023/06/30 01:26:37;;;;;;;9.00;4.95;;;19.20;98.10;;;;;;4114139;28;20049;-57
2023/06/30 01:28:41;;;;;;;7.05;3.22;;;19.10;98.00;;;;;;4114941;28;20885;-57
2023/06/30 01:30:43;;;;;;;4.63;2.77;;;18.90;98.20;;;;;;4115314;28;20065;-53
2023/06/30 01:32:46;;;;;;;4.88;2.60;;;18.90;98.60;;;;;;4117076;28;20126;-53
2023/06/30 01:34:48;;;;;;;6.22;3.10;;;18.80;98.60;;;;;;4118115;28;20043;-53
2023/06/30 01:36:50;;;;;;;6.75;3.90;;;18.80;98.40;;;;;;4117125;28;20081;-55
2023/06/30 01:38:52;;;;;;;6.80;3.72;;;18.90;98.20;;;;;;4117631;28;20093;-55
2023/06/30 01:40:55;;;;;;;6.72;3.80;;;18.90;98.30;;;;;;4117849;28;20047;-53
2023/06/30 01:42:58;;;;;;;4.32;2.88;;;18.90;98.30;;;;;;4117942;28;20050;-53
2023/06/30 01:45:02;;;;;;;3.75;2.35;;;18.90;98.00;;;;;;4117626;28;20065;-53
2023/06/30 01:47:06;;;;;;;3.22;1.92;;;19.00;97.90;;;;;;4117300;28;20429;-52
2023/06/30 01:49:11;;;;;;;2.25;1.77;;;18.90;97.90;;;;;;4117713;28;20182;-53
2023/06/30 01:51:13;;;;;;;2.92;1.73;;;18.90;97.60;;;;;;4117857;28;20046;-52
2023/06/30 01:53:15;;;;;;;4.60;1.42;;;18.80;97.70;;;;;;4117659;28;20404;-53
2023/06/30 01:55:17;;;;;;;3.65;1.60;;;18.80;97.60;;;;;;4117640;28;20050;-53
2023/06/30 01:57:20;;;;;;;3.08;2.00;;;18.80;97.60;;;;;;4116661;28;20058;-53
2023/06/30 01:59:23;;;;;;;4.45;2.70;;;18.80;97.80;;;;;;4117468;28;20078;-53
2023/06/30 02:01:26;;;;;;;2.67;1.75;;;18.70;97.90;;;;;;4117648;28;20051;-53
2023/06/30 02:03:29;;;;;;;2.72;1.60;;;18.80;97.80;;;;;;4117645;28;20088;-53
2023/06/30 02:05:31;;;;;;;3.78;2.03;;;18.60;98.20;;;;;;4116136;28;20097;-53
2023/06/30 02:07:33;;;;;;;4.53;1.40;;;18.60;98.20;;;;;;4110135;28;20085;-53
2023/06/30 02:09:36;;;;;;;3.47;1.50;;;18.60;98.30;;;;;;4117486;28;20060;-56
2023/06/30 02:11:49;;;;;;;2.38;1.52;;;18.40;98.60;;;;;;4115051;28;20117;-54
2023/06/30 02:13:51;;;;;;;2.65;1.50;;;18.40;98.60;;;;;;4117559;28;20109;-56
2023/06/30 02:15:54;;;;;;;2.78;1.58;;;18.40;98.50;;;;;;4117452;28;20062;-55
2023/06/30 02:17:57;;;;;;;2.72;1.60;;;18.50;98.60;;;;;;4116460;28;20109;-53
2023/06/30 02:20:00;;;;;;;2.60;1.50;;;18.50;98.60;;;;;;4117308;28;20078;-55
2023/06/30 02:22:02;;;;;;;2.92;1.83;;;18.50;98.40;;;;;;4116741;28;20042;-55
2023/06/30 02:24:05;;;;;;;2.58;1.73;;;18.50;98.40;;;;;;4117493;28;20050;-56
2023/06/30 02:26:07;;;;;;;1.90;1.70;;;18.50;98.40;;;;;;4117019;28;20053;-56
2023/06/30 02:28:09;;;;;;;4.28;1.95;;;18.40;98.60;;;;;;4116250;28;20053;-55
2023/06/30 02:30:12;;;;;;;2.92;2.00;;;18.40;98.70;;;;;;4117208;28;20054;-57
2023/06/30 02:32:14;;;;;;;2.17;1.80;;;18.40;98.70;;;;;;4117218;28;20142;-56
2023/06/30 02:34:18;;;;;;;3.33;1.95;;;18.50;98.60;;;;;;4117241;28;20047;-55
2023/06/30 02:36:20;;;;;;;4.78;2.03;;;18.60;98.30;;;;;;4116704;28;20049;-54
2023/06/30 02:38:22;;;;;;;2.47;2.05;;;18.60;98.40;;;;;;4116572;28;20133;-55
2023/06/30 02:40:26;;;;;;;3.45;2.15;;;18.60;98.40;;;;;;4117270;28;20053;-55
2023/06/30 02:42:28;;;;;;;2.80;1.80;;;18.60;98.20;;;;;;4116883;28;20055;-55
2023/06/30 02:44:30;;;;;;;2.70;2.40;;;18.60;98.30;;;;;;4115684;28;20051;-55
2023/06/30 02:46:32;;;;;;;3.90;2.83;;;18.70;98.10;;;;;;4115872;28;20102;-56
2023/06/30 02:48:34;;;;;;;3.63;2.30;;;18.70;97.80;;;;;;4116723;28;20066;-55
2023/06/30 02:50:37;;;;;;;4.70;2.20;;;18.70;97.60;;;;;;4116601;28;20046;-55
2023/06/30 02:52:39;;;;;;;4.78;2.58;;;18.70;97.60;;;;;;4116893;28;20408;-55
2023/06/30 02:54:41;;;;;;;3.00;1.60;;;18.60;97.60;;;;;;4116762;28;20130;-54
2023/06/30 02:56:43;;;;;;;2.58;1.60;;;18.50;97.70;;;;;;4115830;28;20039;-54
2023/06/30 02:58:45;;;;;;;1.63;1.52;;;18.50;97.70;;;;;;4117146;28;20046;-66
2023/06/30 03:00:49;;;;;;;2.58;1.83;;;18.50;97.80;;;;;;4116958;28;20118;-58
2023/06/30 03:02:51;;;;;;;2.85;1.80;;;18.40;97.80;;;;;;4116321;28;20055;-58
2023/06/30 03:04:55;;;;;;;2.10;1.60;;;18.40;97.90;;;;;;4116385;28;20166;-54
2023/06/30 03:06:59;;;;;;;4.70;1.60;;;18.40;97.90;;;;;;4116076;28;20401;-54
2023/06/30 03:09:01;;;;;;;1.75;1.63;;;18.40;97.90;;;;;;4099457;29;20044;-54
2023/06/30 03:11:03;;;;;;;2.97;1.90;;;18.30;97.60;;;;;;4099716;29;20097;-54
2023/06/30 03:13:05;;;;;;;2.03;1.40;;;18.30;97.70;;;;;;4113365;28;20138;-55
2023/06/30 03:15:08;;;;;;;1.52;1.42;;;18.20;97.70;;;;;;4117008;28;20081;-54
2023/06/30 03:17:10;;;;;;;2.10;1.80;;;18.20;97.90;;;;;;4115665;28;20048;-56
2023/06/30 03:19:14;;;;;;;2.58;1.58;;;18.30;97.70;;;;;;4116444;28;20043;-56
2023/06/30 03:21:16;;;;;;;2.08;1.70;;;18.30;98.00;;;;;;4116790;28;20086;-56
2023/06/30 03:23:20;;;;;;;2.08;1.60;;;18.30;97.70;;;;;;4116348;28;20515;-57
2023/06/30 03:25:22;;;;;;;2.75;1.73;;;18.20;97.50;;;;;;4116630;28;20070;-56
2023/06/30 03:27:24;;;;;;;3.20;1.70;;;18.30;97.60;;;;;;4114072;28;20055;-55
2023/06/30 03:29:26;;;;;;;4.50;2.10;;;18.30;97.60;;;;;;4116478;28;20062;-60
2023/06/30 03:31:28;;;;;;;2.28;1.67;;;18.20;97.60;;;;;;4116455;28;20508;-57
2023/06/30 03:33:30;;;;;;;8.85;2.40;;;18.20;97.60;;;;;;4116071;28;20047;-55
2023/06/30 03:35:32;;;;;;;3.13;2.00;;;18.20;97.30;;;;;;4116248;28;20042;-56
2023/06/30 03:37:34;;;;;;;3.80;2.50;;;18.20;97.30;;;;;;4115305;28;20436;-56
2023/06/30 03:39:38;;;;;;;2.75;2.20;;;18.20;97.30;;;;;;4116176;28;20043;-56
2023/06/30 03:41:40;;;;;;;4.63;2.63;;;18.20;97.40;;;;;;4116577;28;20138;-55
2023/06/30 03:43:42;;;;;;;9.13;2.25;;;18.20;97.20;;;;;;4115877;28;20042;-56
2023/06/30 03:45:44;;;;;;;3.28;2.50;;;18.20;97.30;;;;;;4116196;28;20062;-55
2023/06/30 03:47:47;;;;;;;3.33;2.13;;;18.20;97.00;;;;;;4115174;28;20069;-56
2023/06/30 03:49:49;;;;;;;4.25;2.47;;;18.20;97.10;;;;;;4114293;28;20390;-57
2023/06/30 03:51:51;;;;;;;3.63;2.30;;;18.10;97.00;;;;;;4116313;28;20145;-57
2023/06/30 03:53:53;;;;;;;2.85;2.28;;;18.10;97.20;;;;;;4115915;28;20055;-56
2023/06/30 03:55:58;;;;;;;5.70;2.55;;;18.00;97.30;;;;;;4115574;28;20051;-55
2023/06/30 03:58:00;;;;;;;2.92;2.20;;;18.00;97.30;;;;;;4114977;28;20051;-57
2023/06/30 04:00:03;;;;;;;4.50;2.33;;;18.10;97.20;;;;;;4115534;28;20085;-58
2023/06/30 04:02:05;;;;;;;5.45;2.67;;;18.00;97.10;;;;;;4115791;28;20405;-57
2023/06/30 04:04:08;;;;;;;3.30;2.35;;;18.00;97.40;;;;;;4115092;28;20069;-56
2023/06/30 04:06:10;;;;;;;2.90;2.20;;;18.00;97.50;;;;;;4115956;28;20342;-58
2023/06/30 04:08:12;;;;;;;5.50;2.08;;;18.00;97.00;;;;;;4113803;28;20050;-56
2023/06/30 04:10:15;;;;;;;2.70;1.98;;;18.00;97.10;;;;;;4115473;28;20058;-56
2023/06/30 04:12:18;;;;;;;3.55;2.50;;;18.00;97.00;;;;;;4115823;28;20054;-57
2023/06/30 04:14:20;;;;;;;3.88;2.45;;;18.00;97.10;;;;;;4115240;28;20078;-57
2023/06/30 04:16:22;;;;;;;2.90;2.20;;;18.00;97.10;;;;;;4098503;29;20509;-57
2023/06/30 04:18:24;;;;;;;5.00;2.50;;;18.00;97.00;;;;;;4114490;28;20122;-58
2023/06/30 04:20:26;;;;;;;2.97;2.03;;;18.10;97.00;;;;;;4115515;28;20047;-57
2023/06/30 04:22:29;;;;;;;2.65;2.22;;;18.10;96.90;;;;;;4115599;28;20051;-56
2023/06/30 04:24:31;;;;;;;4.05;2.35;;;18.00;96.70;;;;;;4115491;28;20054;-56
2023/06/30 04:26:33;;;;;;;4.93;2.55;;;18.00;96.90;;;;;;4114379;28;20057;-57
2023/06/30 04:28:37;;;;;;;3.50;2.03;;;18.00;97.00;;;;;;4114621;28;20488;-55
2023/06/30 04:30:39;;;;;;;4.63;2.20;;;18.00;97.10;;;;;;4115610;28;20395;-56
2023/06/30 04:32:41;;;;;;;4.72;2.15;;;18.10;97.10;;;;;;4115285;28;20050;-57
2023/06/30 04:34:44;;;;;;;5.53;2.70;;;18.10;96.80;;;;;;4115317;28;20047;-57
2023/06/30 04:36:49;;;;;;;4.68;2.42;;;18.10;97.00;;;;;;4115218;28;20047;-56
2023/06/30 04:38:51;;;;;;;6.13;2.42;;;18.10;96.90;;;;;;4115134;28;20078;-56
2023/06/30 04:40:54;;;;;;;3.22;2.35;;;18.10;96.90;;;;;;4115109;28;20047;-55
2023/06/30 04:42:56;;;;;;;8.23;2.50;;;18.10;96.90;;;;;;4115934;28;20073;-55
2023/06/30 04:45:00;;;;;;;5.38;2.72;;;18.10;97.20;;;;;;4115552;28;20481;-53
2023/06/30 04:47:02;;;;;;;8.47;2.77;;;18.20;96.80;;;;;;4114973;28;20047;-53
2023/06/30 04:49:06;;;;;;;4.70;2.85;;;18.10;96.80;;;;;;4115743;28;20046;-53
2023/06/30 04:51:08;;;;;;;3.00;2.33;;;18.10;96.60;;;;;;4115075;28;20098;-52
2023/06/30 04:53:10;;;;;;;4.90;2.17;;;18.00;96.70;;;;;;4115648;28;20042;-52
2023/06/30 04:55:12;;;;;;;5.15;2.60;;;17.90;97.00;;;;;;4115142;28;20077;-54
2023/06/30 04:57:14;;;;;;;6.65;3.13;;;17.90;96.90;;;;;;4111269;28;20444;-53
2023/06/30 04:59:16;;;;;;;4.15;2.53;;;18.00;96.80;;;;;;4115631;28;20053;-54
2023/06/30 05:01:19;;;;;;;5.80;2.75;;;18.10;96.90;;;;;;4115085;28;20132;-53
2023/06/30 05:03:22;;;;;;;7.45;3.78;;;18.20;96.60;;;;;;4115754;28;20047;-54
2023/06/30 05:05:24;;;;;;;8.85;3.67;;;18.20;96.70;;;;;;4115323;28;20199;-52
2023/06/30 05:07:26;;;;;;;12.95;3.47;;;18.20;96.70;;;;;;4115098;28;20047;-53
2023/06/30 05:09:28;;;;;;;6.78;3.20;;;18.10;96.80;;;;;;4101813;29;20066;-52
2023/06/30 05:11:30;;;;;;;7.80;3.38;;;18.20;96.70;;;;;;4118604;28;20109;-53
2023/06/30 05:13:32;;;;;;;9.02;2.95;;;18.20;96.90;;;;;;4118512;28;20097;-53
2023/06/30 05:15:35;;;;;;;8.35;3.38;;;18.20;97.00;;;;;;4101410;28;20445;-54
2023/06/30 05:17:38;;;;;;;6.28;3.00;;;18.20;97.00;;;;;;4117607;28;20397;-53
2023/06/30 05:19:41;;;;;;;8.77;3.30;;;18.20;97.00;;;;;;4118703;28;20086;-53
2023/06/30 05:21:43;;;;;;;8.57;3.42;;;18.20;96.80;;;;;;4118246;28;20133;-55
2023/06/30 05:23:45;;;;;;;9.32;3.70;;;18.20;97.10;;;;;;4118730;28;20138;-54
2023/06/30 05:25:48;;;;;;;11.55;3.63;;;18.20;96.80;;;;;;4118468;28;20054;-52
2023/06/30 05:27:50;;;;;;;7.60;3.72;;;18.20;96.60;;;;;;4117449;28;20043;-56
2023/06/30 05:29:52;;;;;;;6.05;3.03;;;18.10;96.70;;;;;;4118585;28;20070;-60
2023/06/30 05:31:54;;;;;;;10.93;3.58;;;18.20;96.60;;;;;;4118986;28;20110;-54
2023/06/30 05:33:57;;;;;;;5.05;3.55;;;18.20;97.00;;;;;;4118270;28;20089;-55
2023/06/30 05:35:59;;;;;;;6.45;4.13;;;18.20;97.30;;;;;;4118302;28;20073;-53
2023/06/30 05:38:01;;;;;;;5.88;3.92;;;18.30;97.70;;;;;;4099470;29;20074;-53
2023/06/30 05:40:05;;;;;;;8.18;3.90;;;18.40;97.80;;;;;;4116896;28;20046;-51
2023/06/30 05:42:08;;;;;;;9.05;3.70;;;18.40;97.60;;;;;;4117910;28;20051;-54
2023/06/30 05:44:10;;;;;;;7.97;3.53;;;18.50;97.50;;;;;;4117907;28;20058;-50
2023/06/30 05:46:12;;;;;;;10.93;4.13;;;18.50;97.30;;;;;;4117984;28;20054;-52
2023/06/30 05:48:14;;;;;;;6.60;3.47;;;18.50;97.40;;;;;;4117146;28;20053;-53
2023/06/30 05:50:21;;;;;;;9.20;3.28;;;18.50;97.40;;;;;;4117618;28;20169;-54
2023/06/30 05:52:24;;;;;;;8.25;3.40;;;18.50;97.40;;;;;;4117731;28;20074;-54
2023/06/30 05:54:27;;;;;;;5.10;3.30;;;18.60;97.40;;;;;;4117873;28;20050;-54
2023/06/30 05:56:29;;;;;;;6.40;3.75;;;18.60;97.30;;;;;;4117953;28;20050;-53
2023/06/30 05:58:31;;;;;;;7.25;3.60;;;18.60;97.40;;;;;;4116513;28;20042;-52
2023/06/30 06:00:33;;;;;;;10.23;4.10;;;18.60;97.10;;;;;;4117339;28;20441;-53
2023/06/30 06:02:35;;;;;;;9.20;3.50;;;18.70;96.90;;;;;;4117303;28;20104;-52
2023/06/30 06:04:38;;;;;;;10.95;3.67;;;18.70;97.00;;;;;;4117677;28;20118;-53
2023/06/30 06:06:42;;;;;;;12.23;3.70;;;18.80;97.00;;;;;;4117970;28;20062;-52
2023/06/30 06:08:46;;;;;;;6.75;3.60;;;18.80;97.10;;;;;;4116471;28;20401;-52
2023/06/30 06:10:48;;;;;;;;;;;18.80;96.90;;;;;;4118346;28;20074;-53
2023/06/30 06:12:52;;;;;;;9.63;4.28;;;18.80;96.80;;;;;;4117595;28;19945;-53
2023/06/30 06:14:54;;;;;;;7.97;3.65;;;18.80;96.60;;;;;;4117458;28;20046;-53
2023/06/30 06:16:56;;;;;;;9.50;4.32;;;18.90;96.70;;;;;;4117668;28;20057;-53
2023/06/30 06:18:58;;;;;;;8.55;4.00;;;18.80;96.50;;;;;;4116151;28;20134;-52
2023/06/30 06:21:02;;;;;;;6.05;3.65;;;18.90;96.40;;;;;;4117371;28;20514;-53
2023/06/30 06:23:06;;;;;;;7.15;3.38;;;19.00;96.70;;;;;;4117175;28;20047;-54
2023/06/30 06:25:10;;;;;;;7.45;3.65;;;19.00;96.80;;;;;;4113604;28;20101;-52
2023/06/30 06:27:12;;;;;;;7.53;3.72;;;19.10;96.60;;;;;;4117257;28;20046;-54
2023/06/30 06:29:19;;;;;;;10.80;3.55;;;19.10;96.40;;;;;;4117247;28;20050;-54
2023/06/30 06:31:24;;;;;;;6.57;3.38;;;19.20;96.00;;;;;;4117386;28;20121;-52
2023/06/30 06:33:26;;;;;;;8.50;3.20;;;19.10;95.80;;;;;;4117094;28;20062;-53
2023/06/30 06:35:28;;;;;;;11.05;4.00;;;19.20;96.00;;;;;;4117165;28;20047;-53
2023/06/30 06:37:31;;;;;;;8.80;3.40;;;19.30;96.10;;;;;;4116246;28;20054;-52
2023/06/30 06:39:34;;;;;;;11.50;3.22;;;19.40;96.00;;;;;;4116843;28;20075;-53
2023/06/30 06:41:36;;;;;;;11.20;3.30;;;19.40;95.70;;;;;;4116890;28;20081;-52
2023/06/30 06:43:38;;;;;;;5.28;3.10;;;19.40;95.60;;;;;;4116718;28;20074;-52
2023/06/30 06:45:43;;;;;;;7.43;3.35;;;19.50;95.70;;;;;;4116592;28;20528;-57
2023/06/30 06:48:21;;;;;;;7.78;2.95;;;19.60;95.20;;;;;;4116134;28;20047;-54
2023/06/30 06:50:23;;;;;;;9.50;3.83;;;19.70;94.50;;;;;;4113683;28;20496;-54
2023/06/30 06:52:25;;;;;;;7.53;2.75;;;19.80;94.60;;;;;;4116830;28;20054;-55
2023/06/30 06:54:27;;;;;;;5.20;2.90;;;19.80;94.20;;;;;;4116575;28;20117;-54
2023/06/30 06:56:31;;;;;;;6.50;3.10;;;19.90;94.40;;;;;;4116775;28;20047;-55
2023/06/30 06:58:38;;;;;;;6.18;2.97;;;20.00;94.10;;;;;;4115653;28;20129;-57
2023/06/30 07:00:40;;;;;;;7.65;3.05;;;20.10;94.00;;;;;;4116745;28;20043;-53
2023/06/30 07:02:42;;;;;;;10.82;2.92;;;20.20;93.70;;;;;;4116879;28;20051;-55
2023/06/30 07:04:44;;;;;;;10.40;3.00;;;20.30;93.10;;;;;;4116615;28;20387;-55
2023/06/30 07:06:46;;;;;;;8.13;3.03;;;20.40;93.40;;;;;;4116771;28;20054;-54
2023/06/30 07:08:48;;;;;;;8.93;3.15;;;20.60;92.80;;;;;;4115643;28;20127;-58
2023/06/30 07:10:51;;;;;;;8.27;3.22;;;20.80;92.50;;;;;;4116357;28;20061;-58
2023/06/30 07:12:55;;;;;;;10.02;3.25;;;20.90;92.20;;;;;;4116292;28;20051;-58
2023/06/30 07:14:57;;;;;;;7.93;3.08;;;21.10;92.20;;;;;;4116448;28;20074;-57
2023/06/30 07:16:59;;;;;;;7.75;2.80;;;21.10;91.70;;;;;;4116342;28;20047;-56
2023/06/30 07:19:03;;;;;;;7.55;2.90;;;21.30;91.70;;;;;;4115681;28;20133;-57
2023/06/30 07:21:05;;;;;;;12.30;2.97;;;21.40;91.30;;;;;;4116433;28;20097;-54
2023/06/30 07:23:07;;;;;;;11.38;2.80;;;21.60;90.40;;;;;;4116284;28;20054;-56
2023/06/30 07:25:09;;;;;;;7.60;2.80;;;21.40;90.60;;;;;;4116277;28;20043;-54
2023/06/30 07:27:12;;;;;;;4.35;2.33;;;21.70;90.30;;;;;;4116000;28;20536;-56
2023/06/30 07:29:15;;;;;;;8.98;2.40;;;21.70;90.00;;;;;;4115187;28;20047;-56
2023/06/30 07:31:17;;;;;;;12.23;3.15;;;21.60;89.60;;;;;;4115988;28;20136;-56
2023/06/30 07:33:20;;;;;;;5.50;2.50;;;21.60;89.60;;;;;;4116505;28;20054;-55
2023/06/30 07:35:22;;;;;;;8.00;2.55;;;21.90;90.00;;;;;;4116270;28;20043;-54
2023/06/30 07:37:24;;;;;;;9.65;2.30;;;22.10;88.90;;;;;;4115694;28;20085;-56
2023/06/30 07:39:26;;;;;;;3.63;2.10;;;22.10;87.30;;;;;;4115949;28;20054;-56
2023/06/30 07:41:34;;;;;;;10.48;2.38;;;22.20;85.30;;;;;;4115677;28;20485;-56
2023/06/30 07:43:37;;;;;;;6.15;2.10;;;22.20;85.20;;;;;;4116062;28;20047;-55
2023/06/30 07:45:45;;;;;;;4.90;2.55;;;22.30;85.50;;;;;;4115841;28;20126;-56
2023/06/30 07:47:48;;;;;;;7.82;4.10;;;22.60;84.90;;;;;;4114967;28;20058;-55
2023/06/30 07:49:51;;;;;;;5.50;2.50;;;22.70;84.70;;;;;;4115870;28;20049;-56
2023/06/30 07:51:53;;;;;;;7.30;2.08;;;22.90;85.30;;;;;;4115807;28;20125;-57
2023/06/30 07:53:55;;;;;;;10.52;2.13;;;23.00;81.20;;;;;;4115836;28;20051;-56
2023/06/30 07:55:57;;;;;;;13.00;2.55;;;23.00;80.70;;;;;;4115867;28;20511;-56
2023/06/30 07:57:59;;;;;;;7.57;2.10;;;22.90;81.80;;;;;;4097714;29;20138;-55
2023/06/30 08:00:01;;;;;;;9.10;2.45;;;22.90;81.00;;;;;;4116029;28;20065;-55
2023/06/30 08:02:06;;;;;;;10.90;2.72;;;22.90;80.40;;;;;;4116152;28;20054;-56
2023/06/30 08:04:09;;;;;;;12.05;3.00;;;22.90;81.00;;;;;;4115772;28;20410;-55
2023/06/30 08:06:16;;;;;;;7.72;2.30;;;22.70;82.00;;;;;;4115956;28;20074;-55
2023/06/30 08:08:23;;;;;;;4.68;1.80;;;22.80;82.20;;;;;;4114831;28;20453;-55
2023/06/30 08:10:31;;;;;;;5.05;1.95;;;22.80;80.90;;;;;;4115632;28;20441;-55
2023/06/30 08:12:33;;;;;;;7.30;1.80;;;22.80;81.40;;;;;;4115553;28;20043;-55
2023/06/30 08:14:35;;;;;;;5.78;2.35;;;22.80;80.80;;;;;;4115627;28;20130;-56
2023/06/30 08:16:37;;;;;;;7.05;1.92;;;22.80;79.90;;;;;;4116581;28;20053;-55
2023/06/30 08:18:41;;;;;;;11.70;2.10;;;22.90;78.80;;;;;;4114382;28;20054;-56
2023/06/30 08:20:48;;;;;;;6.82;1.85;;;23.10;79.30;;;;;;4099639;28;20083;-56
2023/06/30 08:22:50;;;;;;;9.32;2.40;;;23.10;79.70;;;;;;4113888;28;20573;-57
2023/06/30 08:24:52;;;;;;;7.57;2.10;;;23.20;78.50;;;;;;4107380;28;20496;-55
2023/06/30 08:26:54;;;;;;;11.68;2.38;;;23.40;79.40;;;;;;4115703;28;20047;-56
2023/06/30 08:29:01;;;;;;;8.55;2.53;;;23.50;78.50;;;;;;4114211;28;20498;-57
2023/06/30 08:31:09;;;;;;;9.25;2.45;;;23.60;78.90;;;;;;4099852;29;20175;-55
2023/06/30 08:33:11;;;;;;;5.95;2.65;;;23.60;77.60;;;;;;4106815;28;20105;-56
2023/06/30 08:35:25;;;;;;;6.90;2.53;;;23.50;77.50;;;;;;4099696;28;20062;-57
2023/06/30 08:37:27;;;;;;;10.18;2.65;;;23.60;78.20;;;;;;4115400;28;20555;-56
2023/06/30 08:39:31;;;;;;;13.30;2.65;;;23.60;76.70;;;;;;4114244;28;20050;-55
2023/06/30 08:41:35;;;;;;;5.97;2.00;;;23.60;77.20;;;;;;4115551;28;20055;-55
2023/06/30 08:43:39;;;;;;;9.13;2.20;;;23.70;76.60;;;;;;4115202;28;20046;-53
2023/06/30 08:45:43;;;;;;;5.38;1.65;;;23.90;77.00;;;;;;4115165;28;20046;-57
2023/06/30 08:47:46;;;;;;;8.65;2.15;;;24.00;76.20;;;;;;4113098;28;20126;-57
2023/06/30 08:49:48;;;;;;;6.10;2.10;;;24.00;77.00;;;;;;4111666;28;20324;-56
2023/06/30 08:51:55;;;;;;;3.67;1.70;;;23.90;79.70;;;;;;4114803;28;20437;-55
2023/06/30 08:53:58;;;;;;;7.20;2.38;;;23.80;78.60;;;;;;4114259;28;20113;-57
2023/06/30 08:56:01;;;;;;;5.95;2.33;;;23.80;79.70;;;;;;4115103;28;20058;-56
2023/06/30 08:58:04;;;;;;;3.55;1.90;;;23.80;76.00;;;;;;4114120;28;20445;-57
2023/06/30 09:00:22;;;;;;;4.90;1.95;;;23.80;77.30;;;;;;4111845;28;20046;-57
2023/06/30 09:02:26;;;;;;;3.08;1.63;;;23.90;77.90;;;;;;4115322;28;20429;-55
2023/06/30 09:04:28;;;;;;;4.15;1.95;;;24.00;77.60;;;;;;4114855;28;20055;-56
2023/06/30 09:06:33;;;;;;;6.95;1.75;;;24.10;76.60;;;;;;4113057;28;20039;-56
2023/06/30 09:08:44;;;;;;;3.33;1.75;;;24.00;75.00;;;;;;4112565;28;20051;-55
2023/06/30 09:10:48;;;;;;;6.82;1.80;;;24.00;74.10;;;;;;4112039;28;20054;-55
2023/06/30 09:12:54;;;;;;;5.30;1.63;;;24.10;74.50;;;;;;4114480;28;20574;-55
2023/06/30 09:14:59;;;;;;;5.95;2.00;;;24.20;72.90;;;;;;4111768;28;20050;-56
2023/06/30 09:17:02;;;;;;;7.55;1.83;;;24.20;72.80;;;;;;4111842;28;20047;-55
2023/06/30 09:19:07;;;;;;;3.33;1.70;;;24.20;75.00;;;;;;4113310;28;20122;-56
2023/06/30 09:21:10;;;;;;;4.03;1.90;;;24.00;76.40;;;;;;4115033;28;20408;-55
2023/06/30 09:23:14;;;;;;;6.03;2.13;;;24.00;76.60;;;;;;4115155;28;20178;-57
2023/06/30 09:25:42;;;;;;;7.57;1.67;;;24.20;75.40;;;;;;4110859;28;20145;-57
2023/06/30 09:27:44;;;;;;;9.32;1.52;;;24.10;75.00;;;;;;4114250;28;20074;-56
2023/06/30 09:29:53;;;;;;;4.70;2.08;;;24.10;75.50;;;;;;4113625;28;20050;-55
2023/06/30 09:32:01;;;;;;;4.32;1.75;;;24.20;76.20;;;;;;4111774;28;20404;-53
2023/06/30 09:34:08;;;;;;;4.70;1.50;;;24.20;74.30;;;;;;4111081;28;20073;-54
2023/06/30 09:36:17;;;;;;;3.80;1.48;;;24.10;75.50;;;;;;4114061;28;20055;-54
2023/06/30 09:38:19;;;;;;;6.82;1.88;;;24.10;73.60;;;;;;4112133;28;20043;-53
2023/06/30 09:40:24;;;;;;;5.70;1.83;;;24.30;74.30;;;;;;4113828;28;20054;-56
2023/06/30 09:42:28;;;;;;;7.18;1.67;;;24.30;72.60;;;;;;4111450;28;20043;-55
2023/06/30 09:44:39;;;;;;;3.30;1.65;;;24.50;72.50;;;;;;4114449;28;20050;-55
2023/06/30 09:46:45;;;;;;;4.70;1.45;;;24.60;72.10;;;;;;4110940;28;20050;-56
2023/06/30 09:48:53;;;;;;;7.63;1.90;;;24.70;72.30;;;;;;4113445;28;20043;-57
2023/06/30 09:50:56;;;;;;;4.70;1.70;;;24.80;70.80;;;;;;4113676;28;20078;-55
2023/06/30 09:52:58;;;;;;;3.03;1.33;;;24.80;69.80;;;;;;4107823;28;20484;-54
2023/06/30 09:55:07;;;;;;;2.88;1.30;;;24.80;70.10;;;;;;4114755;28;20047;-54
2023/06/30 09:57:10;;;;;;;2.50;1.50;;;24.60;71.80;;;;;;4117386;28;20122;-56
2023/06/30 09:59:14;;;;;;;3.45;1.60;;;24.70;71.90;;;;;;4097409;29;20611;-55
2023/06/30 10:01:19;;;;;;;7.97;2.40;;;24.90;70.10;;;;;;4112725;28;20047;-53
2023/06/30 10:03:21;;;;;;;10.45;2.25;;;25.00;69.90;;;;;;4110263;28;20043;-56
2023/06/30 10:05:23;;;;;;;5.50;1.65;;;24.90;70.20;;;;;;4112967;28;20476;-54
2023/06/30 10:07:25;;;;;;;3.30;1.70;;;25.10;71.10;;;;;;4116201;28;20050;-54
2023/06/30 10:09:30;;;;;;;5.90;2.20;;;24.90;71.30;;;;;;4115274;28;20049;-54
2023/06/30 10:11:33;;;;;;;4.40;1.80;;;24.50;71.00;;;;;;4099165;29;20102;-53
2023/06/30 10:13:36;;;;;;;3.55;1.80;;;24.60;72.00;;;;;;4113144;28;20053;-53
2023/06/30 10:15:40;;;;;;;4.78;1.60;;;24.70;71.10;;;;;;4111824;28;20043;-53
2023/06/30 10:17:44;;;;;;;8.53;1.90;;;24.60;71.20;;;;;;4099087;29;20270;-55
2023/06/30 10:19:47;;;;;;;;;;;24.40;71.40;;;;;;4114779;28;20046;-56
2023/06/30 10:21:49;;;;;;;3.78;1.70;;;24.50;72.40;;;;;;4112830;28;19930;-56
2023/06/30 10:23:52;;;;;;;7.57;1.88;;;24.60;72.40;;;;;;4115533;28;20085;-55
2023/06/30 10:25:55;;;;;;;3.58;1.50;;;24.70;71.70;;;;;;4115857;28;20061;-55
2023/06/30 10:27:57;;;;;;;4.72;1.63;;;24.80;71.30;;;;;;4115074;28;20058;-56
2023/06/30 10:29:59;;;;;;;4.82;1.88;;;25.10;70.70;;;;;;4115105;28;20066;-56
2023/06/30 10:32:04;;;;;;;3.60;1.67;;;25.20;69.60;;;;;;4115484;28;20516;-55
2023/06/30 10:34:06;;;;;;;3.97;1.50;;;25.30;70.30;;;;;;4115735;28;20437;-56
2023/06/30 10:36:15;;;;;;;5.43;1.48;;;25.30;69.20;;;;;;4112510;28;20042;-56
2023/06/30 10:38:18;;;;;;;3.25;1.33;;;25.20;69.80;;;;;;4113953;28;20046;-56
2023/06/30 10:40:24;;;;;;;8.35;2.60;;;25.00;70.00;;;;;;4115250;28;20512;-56
2023/06/30 10:42:27;;;;;;;2.83;1.33;;;24.90;68.90;;;;;;4115611;28;20042;-57